createdAt,value
2022-08-26T00:00:28.761Z,6.95
2022-08-26T00:03:00.379Z,7.30
2022-08-26T00:05:32.086Z,6.35
2022-08-26T00:08:03.777Z,6.22
2022-08-26T00:10:35.363Z,6.00
2022-08-26T00:13:08.674Z,6.13
2022-08-26T00:15:40.809Z,6.55
2022-08-26T00:18:21.913Z,5.72
2022-08-26T00:20:55.048Z,5.63
2022-08-26T00:23:26.556Z,6.32
2022-08-26T00:26:01.361Z,6.38
2022-08-26T00:28:34.064Z,7.10
2022-08-26T00:31:05.679Z,6.47
2022-08-26T00:33:39.975Z,5.75
2022-08-26T00:36:20.077Z,6.85
2022-08-26T00:38:51.945Z,6.32
2022-08-26T00:41:23.728Z,7.18
2022-08-26T00:43:55.097Z,6.53
2022-08-26T00:46:31.570Z,7.38
2022-08-26T00:49:12.225Z,8.35
2022-08-26T00:51:54.430Z,6.47
2022-08-26T00:54:31.679Z,8.80
2022-08-26T00:57:16.267Z,7.38
2022-08-26T00:59:52.813Z,7.60
2022-08-26T01:02:24.743Z,7.15
2022-08-26T01:05:01.647Z,7.68
2022-08-26T01:07:35.346Z,7.07
2022-08-26T01:10:11.445Z,7.70
2022-08-26T01:12:47.475Z,6.45
2022-08-26T01:15:23.957Z,6.97
2022-08-26T01:17:55.351Z,7.30
2022-08-26T01:20:51.357Z,7.10
2022-08-26T01:23:23.349Z,7.22
2022-08-26T01:26:00.639Z,6.88
2022-08-26T01:28:34.072Z,7.20
2022-08-26T01:31:11.267Z,7.72
2022-08-26T01:33:55.151Z,8.38
2022-08-26T01:36:26.750Z,8.10
2022-08-26T01:38:58.218Z,7.05
2022-08-26T01:41:30.966Z,7.30
2022-08-26T01:44:04.801Z,7.30
2022-08-26T01:46:37.214Z,7.55
2022-08-26T01:49:09.804Z,8.43
2022-08-26T01:51:42.412Z,7.70
2022-08-26T01:54:14.041Z,7.30
2022-08-26T01:56:47.174Z,8.38
2022-08-26T01:59:20.434Z,7.72
2022-08-26T02:01:52.861Z,8.13
2022-08-26T02:04:36.506Z,8.43
2022-08-26T02:07:09.602Z,7.07
2022-08-26T02:09:41.851Z,8.13
2022-08-26T02:12:15.269Z,8.07
2022-08-26T02:14:51.878Z,7.32
2022-08-26T02:17:28.813Z,7.88
2022-08-26T02:20:00.524Z,8.15
2022-08-26T02:22:32.607Z,8.50
2022-08-26T02:25:23.926Z,8.38
2022-08-26T02:27:56.699Z,8.93
2022-08-26T02:30:34.159Z,7.57
2022-08-26T02:33:06.038Z,9.10
2022-08-26T02:35:38.306Z,8.75
2022-08-26T02:38:11.220Z,8.55
2022-08-26T02:40:43.839Z,7.97
2022-08-26T02:43:15.340Z,8.70
2022-08-26T02:45:47.101Z,8.23
2022-08-26T02:48:21.402Z,9.52
2022-08-26T02:50:52.922Z,8.57
2022-08-26T02:53:25.355Z,7.80
2022-08-26T02:55:57.077Z,9.50
2022-08-26T02:58:31.755Z,8.52
2022-08-26T03:01:05.066Z,8.55
2022-08-26T03:03:36.784Z,8.13
2022-08-26T03:06:08.218Z,8.63
2022-08-26T03:08:39.997Z,8.57
2022-08-26T03:11:11.522Z,8.48
2022-08-26T03:13:43.028Z,8.27
2022-08-26T03:16:14.970Z,7.55
2022-08-26T03:18:47.023Z,8.40
2022-08-26T03:21:23.938Z,8.50
2022-08-26T03:23:56.115Z,8.63
2022-08-26T03:26:30.144Z,8.43
2022-08-26T03:29:20.212Z,8.25
2022-08-26T03:31:51.602Z,8.95
2022-08-26T03:34:23.952Z,8.50
2022-08-26T03:36:57.040Z,9.60
2022-08-26T03:39:28.549Z,8.85
2022-08-26T03:42:03.250Z,9.27
2022-08-26T03:44:35.016Z,9.00
2022-08-26T03:47:07.466Z,9.00
2022-08-26T03:49:39.057Z,9.05
2022-08-26T03:52:10.658Z,9.35
2022-08-26T03:54:42.073Z,9.00
2022-08-26T03:57:14.894Z,9.52
2022-08-26T03:59:48.215Z,11.32
2022-08-26T04:02:19.695Z,9.93
2022-08-26T04:04:51.660Z,10.90
2022-08-26T04:07:25.908Z,9.88
2022-08-26T04:09:58.661Z,10.45
2022-08-26T04:12:30.080Z,9.40
2022-08-26T04:15:01.503Z,9.85
2022-08-26T04:17:34.519Z,10.93
2022-08-26T04:20:07.737Z,10.70
2022-08-26T04:22:42.298Z,10.45
2022-08-26T04:25:13.945Z,9.82
2022-08-26T04:27:45.288Z,10.85
2022-08-26T04:30:20.099Z,10.80
2022-08-26T04:32:52.674Z,10.77
2022-08-26T04:35:26.121Z,10.38
2022-08-26T04:37:58.843Z,9.95
2022-08-26T04:40:30.366Z,9.57
2022-08-26T04:43:02.341Z,10.55
2022-08-26T04:45:39.480Z,10.55
2022-08-26T04:48:11.215Z,10.68
2022-08-26T04:50:43.062Z,9.80
2022-08-26T04:53:14.899Z,11.23
2022-08-26T04:55:46.334Z,10.40
2022-08-26T04:58:22.213Z,10.50
2022-08-26T05:00:55.413Z,10.30
2022-08-26T05:03:27.370Z,11.23
2022-08-26T05:06:05.286Z,11.00
2022-08-26T05:08:36.815Z,10.18
2022-08-26T05:11:09.451Z,10.38
2022-08-26T05:13:41.313Z,9.95
2022-08-26T05:16:14.657Z,10.95
2022-08-26T05:18:47.306Z,9.93
2022-08-26T05:21:24.233Z,10.27
2022-08-26T05:23:56.785Z,10.13
2022-08-26T05:26:30.941Z,10.38
2022-08-26T05:29:02.391Z,10.13
2022-08-26T05:31:35.455Z,9.00
2022-08-26T05:34:07.470Z,9.50
2022-08-26T05:36:40.116Z,9.68
2022-08-26T05:39:11.485Z,8.77
2022-08-26T05:41:43.108Z,9.77
2022-08-26T05:44:18.780Z,10.25
2022-08-26T05:46:51.314Z,10.20
2022-08-26T05:49:26.426Z,8.95
2022-08-26T05:51:58.043Z,9.07
2022-08-26T05:54:29.530Z,9.10
2022-08-26T05:57:00.937Z,9.02
2022-08-26T05:59:32.502Z,8.70
2022-08-26T06:02:03.960Z,8.60
2022-08-26T06:04:35.395Z,8.63
2022-08-26T06:07:07.849Z,8.23
2022-08-26T06:09:43.159Z,7.63
2022-08-26T06:12:15.699Z,6.78
2022-08-26T06:14:51.135Z,7.57
2022-08-26T06:17:22.847Z,6.63
2022-08-26T06:19:54.806Z,7.03
2022-08-26T06:22:45.272Z,7.97
2022-08-26T06:25:35.474Z,7.45
2022-08-26T06:28:09.204Z,6.78
2022-08-26T06:30:41.691Z,7.35
2022-08-26T06:33:13.825Z,6.40
2022-08-26T06:35:48.298Z,7.07
2022-08-26T06:38:20.600Z,7.00
2022-08-26T06:40:54.820Z,6.32
2022-08-26T06:43:28.323Z,6.63
2022-08-26T06:46:02.558Z,7.20
2022-08-26T06:48:37.326Z,6.65
2022-08-26T06:51:22.410Z,6.05
2022-08-26T06:53:59.376Z,6.43
2022-08-26T06:56:37.993Z,6.05
2022-08-26T06:59:11.571Z,7.00
2022-08-26T07:01:46.785Z,6.03
2022-08-26T07:04:22.192Z,7.30
2022-08-26T07:06:54.292Z,6.88
2022-08-26T07:09:28.349Z,6.63
2022-08-26T07:11:59.904Z,7.40
2022-08-26T07:14:31.770Z,8.55
2022-08-26T07:17:03.187Z,7.93
2022-08-26T07:19:34.661Z,7.63
2022-08-26T07:22:06.644Z,7.95
2022-08-26T07:24:42.383Z,7.60
2022-08-26T07:27:15.776Z,7.13
2022-08-26T07:29:47.208Z,7.57
2022-08-26T07:32:20.174Z,7.38
2022-08-26T07:34:54.314Z,7.20
2022-08-26T07:37:25.965Z,8.07
2022-08-26T07:39:58.052Z,7.60
2022-08-26T07:42:29.525Z,6.85
2022-08-26T07:45:01.834Z,8.30
2022-08-26T07:47:33.550Z,7.80
2022-08-26T07:50:05.372Z,7.75
2022-08-26T07:52:38.757Z,7.13
2022-08-26T07:55:11.317Z,7.50
2022-08-26T07:57:43.367Z,8.07
2022-08-26T08:00:16.240Z,7.47
2022-08-26T08:02:47.691Z,7.63
2022-08-26T08:05:22.456Z,7.63
2022-08-26T08:08:26.293Z,6.85
2022-08-26T08:10:51.806Z,7.18
2022-08-26T08:13:23.701Z,7.18
2022-08-26T08:15:55.099Z,7.55
2022-08-26T08:18:28.718Z,6.82
2022-08-26T08:21:19.950Z,6.78
2022-08-26T08:23:55.277Z,7.93
2022-08-26T08:26:27.252Z,6.72
2022-08-26T08:28:58.680Z,7.45
2022-08-26T08:34:26.597Z,7.35
2022-08-26T08:36:58.485Z,6.97
2022-08-26T08:39:31.530Z,6.97
2022-08-26T08:42:32.402Z,7.22
2022-08-26T08:45:10.749Z,7.28
2022-08-26T08:47:51.020Z,6.82
2022-08-26T08:50:46.345Z,7.68
2022-08-26T08:53:41.246Z,6.38
2022-08-26T08:56:30.809Z,6.93
2022-08-26T08:59:22.417Z,7.13
2022-08-26T09:02:32.407Z,6.90
2022-08-26T09:05:25.521Z,7.13
2022-08-26T09:08:13.016Z,7.55
2022-08-26T09:10:59.720Z,7.35
2022-08-26T09:13:32.468Z,7.57
2022-08-26T09:16:13.980Z,7.28
2022-08-26T09:19:24.036Z,7.13
2022-08-26T09:22:08.741Z,6.45
2022-08-26T09:27:44.716Z,7.85
2022-08-26T09:30:36.684Z,7.35
2022-08-26T09:33:15.941Z,7.57
2022-08-26T09:35:52.279Z,7.95
2022-08-26T09:38:27.968Z,7.25
2022-08-26T09:41:05.192Z,6.80
2022-08-26T09:43:37.137Z,7.25
2022-08-26T09:46:27.570Z,6.57
2022-08-26T09:49:47.962Z,7.00
2022-08-26T09:52:29.069Z,6.93
2022-08-26T09:55:10.330Z,6.22
2022-08-26T09:57:53.386Z,6.72
2022-08-26T10:00:39.914Z,5.93
2022-08-26T10:03:24.251Z,7.38
2022-08-26T10:06:06.374Z,8.52
2022-08-26T10:08:42.063Z,7.55
2022-08-26T10:11:48.045Z,7.05
2022-08-26T10:14:29.958Z,6.38
2022-08-26T10:17:26.634Z,6.00
2022-08-26T10:20:23.407Z,5.25
2022-08-26T10:23:02.022Z,5.20
2022-08-26T10:25:46.052Z,5.68
2022-08-26T10:28:17.931Z,5.63
2022-08-26T10:31:23.023Z,6.15
2022-08-26T10:34:00.762Z,6.03
2022-08-26T10:39:47.035Z,6.30
2022-08-26T10:42:35.210Z,6.18
2022-08-26T10:45:14.946Z,5.90
2022-08-26T10:47:55.660Z,6.40
2022-08-26T10:50:37.953Z,5.90
2022-08-26T10:53:36.650Z,6.65
2022-08-26T10:56:27.364Z,6.22
2022-08-26T10:59:14.269Z,6.72
2022-08-26T11:02:08.209Z,6.05
2022-08-26T11:04:51.075Z,6.82
2022-08-26T11:07:40.759Z,4.80
2022-08-26T11:10:21.023Z,5.90
2022-08-26T11:13:06.803Z,5.93
2022-08-26T11:15:38.529Z,5.85
2022-08-26T11:18:13.187Z,5.88
2022-08-26T11:20:46.038Z,6.38
2022-08-26T11:23:22.385Z,5.90
2022-08-26T11:28:44.130Z,5.47
2022-08-26T11:31:18.525Z,6.88
2022-08-26T11:33:51.766Z,6.43
2022-08-26T11:36:47.684Z,7.20
2022-08-26T11:39:30.180Z,7.05
2022-08-26T11:42:23.167Z,6.95
2022-08-26T11:44:58.087Z,7.30
2022-08-26T11:47:31.593Z,6.90
2022-08-26T11:50:26.190Z,7.90
2022-08-26T11:53:04.203Z,7.00
2022-08-26T11:55:43.342Z,7.50
2022-08-26T11:58:15.780Z,7.32
2022-08-26T12:00:51.883Z,7.28
2022-08-26T12:03:36.491Z,6.72
2022-08-26T12:06:14.115Z,6.53
2022-08-26T12:08:47.434Z,7.10
2022-08-26T12:11:24.296Z,6.70
2022-08-26T12:14:00.973Z,7.68
2022-08-26T12:16:36.912Z,7.60
2022-08-26T12:19:27.414Z,6.80
2022-08-26T12:22:04.614Z,6.97
2022-08-26T12:24:43.779Z,6.38
2022-08-26T12:27:21.008Z,7.10
2022-08-26T12:30:12.477Z,7.25
2022-08-26T12:32:57.956Z,6.75
2022-08-26T12:35:29.919Z,6.85
2022-08-26T12:38:01.973Z,7.68
2022-08-26T12:40:43.210Z,7.38
2022-08-26T12:43:42.303Z,6.70
2022-08-26T12:46:18.182Z,7.20
2022-08-26T12:48:50.653Z,8.07
2022-08-26T12:51:26.158Z,6.75
2022-08-26T12:53:58.948Z,7.20
2022-08-26T12:56:39.717Z,7.07
2022-08-26T12:59:25.225Z,6.20
2022-08-26T13:04:41.332Z,6.40
2022-08-26T13:07:18.498Z,6.30
2022-08-26T13:09:52.141Z,6.95
2022-08-26T13:12:37.103Z,5.90
2022-08-26T13:15:08.734Z,7.25
2022-08-26T13:17:40.124Z,8.15
2022-08-26T13:20:11.510Z,7.30
2022-08-26T13:22:42.911Z,6.80
2022-08-26T13:25:15.968Z,6.75
2022-08-26T13:27:51.127Z,7.93
2022-08-26T13:30:22.679Z,7.03
2022-08-26T13:32:58.156Z,6.65
2022-08-26T13:35:29.839Z,7.55
2022-08-26T13:38:01.939Z,6.10
2022-08-26T13:40:34.727Z,6.05
2022-08-26T13:43:06.545Z,6.18
2022-08-26T13:45:41.358Z,7.13
2022-08-26T13:48:12.874Z,6.05
2022-08-26T13:50:46.335Z,6.35
2022-08-26T13:53:18.660Z,6.30
2022-08-26T13:55:50.548Z,6.40
2022-08-26T13:58:22.047Z,5.70
2022-08-26T14:00:57.884Z,5.75
2022-08-26T14:03:29.413Z,6.03
2022-08-26T14:06:00.867Z,6.00
2022-08-26T14:08:32.618Z,6.25
2022-08-26T14:11:04.221Z,5.40
2022-08-26T14:13:36.149Z,5.68
2022-08-26T14:16:15.805Z,5.82
2022-08-26T14:18:50.761Z,4.93
2022-08-26T14:21:23.937Z,4.85
2022-08-26T14:24:00.331Z,5.28
2022-08-26T14:26:32.208Z,5.13
2022-08-26T14:29:04.168Z,5.97
2022-08-26T14:31:36.305Z,5.80
2022-08-26T14:34:07.998Z,5.90
2022-08-26T14:36:39.394Z,4.80
2022-08-26T14:39:13.735Z,5.57
2022-08-26T14:41:53.771Z,6.55
2022-08-26T14:44:31.137Z,5.95
2022-08-26T14:47:06.001Z,5.15
2022-08-26T14:49:37.428Z,5.53
2022-08-26T14:52:08.799Z,5.00
2022-08-26T14:54:40.235Z,5.72
2022-08-26T14:57:13.527Z,6.82
2022-08-26T14:59:49.685Z,5.20
2022-08-26T15:02:33.629Z,5.68
2022-08-26T15:05:06.407Z,5.63
2022-08-26T15:07:39.358Z,5.10
2022-08-26T15:10:13.897Z,5.10
2022-08-26T15:12:45.687Z,5.32
2022-08-26T15:15:18.437Z,5.40
2022-08-26T15:17:49.852Z,5.35
2022-08-26T15:20:21.441Z,6.15
2022-08-26T15:22:53.550Z,5.80
2022-08-26T15:25:24.990Z,5.43
2022-08-26T15:27:56.424Z,5.25
2022-08-26T15:30:27.893Z,5.43
2022-08-26T15:32:59.445Z,5.72
2022-08-26T15:35:38.464Z,5.40
2022-08-26T15:38:12.826Z,5.63
2022-08-26T15:40:44.632Z,5.57
2022-08-26T15:43:28.646Z,6.00
2022-08-26T15:46:01.027Z,6.15
2022-08-26T15:48:32.502Z,6.25
2022-08-26T15:51:04.386Z,5.72
2022-08-26T15:53:35.844Z,6.15
2022-08-26T15:56:07.243Z,6.85
2022-08-26T15:58:40.641Z,6.32
2022-08-26T16:01:12.321Z,6.80
2022-08-26T16:03:43.767Z,6.20
2022-08-26T16:06:20.011Z,6.97
2022-08-26T16:08:51.702Z,6.67
2022-08-26T16:11:23.651Z,6.78
2022-08-26T16:13:55.480Z,6.10
2022-08-26T16:16:26.970Z,6.75
2022-08-26T16:18:58.738Z,6.22
2022-08-26T16:21:30.151Z,7.22
2022-08-26T16:24:01.711Z,7.60
2022-08-26T16:26:35.452Z,8.40
2022-08-26T16:29:11.139Z,8.25
2022-08-26T16:31:42.659Z,10.50
2022-08-26T16:34:14.064Z,10.32
2022-08-26T16:36:45.473Z,10.63
2022-08-26T16:39:16.826Z,13.20
2022-08-26T16:41:48.217Z,12.35
2022-08-26T16:44:19.674Z,13.45
2022-08-26T16:46:51.294Z,12.82
2022-08-26T16:49:29.978Z,11.95
2022-08-26T16:52:01.416Z,13.30
2022-08-26T16:54:33.108Z,14.23
2022-08-26T16:57:04.611Z,13.10
2022-08-26T16:59:36.101Z,12.93
2022-08-26T17:02:08.143Z,12.48
2022-08-26T17:04:39.557Z,14.07
2022-08-26T17:07:10.989Z,12.23
2022-08-26T17:09:43.078Z,13.23
2022-08-26T17:12:14.446Z,13.20
2022-08-26T17:14:45.894Z,12.00
2022-08-26T17:17:17.318Z,12.05
2022-08-26T17:19:49.504Z,12.82
2022-08-26T17:22:20.987Z,11.85
2022-08-26T17:24:52.555Z,12.38
2022-08-26T17:27:23.965Z,12.27
2022-08-26T17:29:55.759Z,11.98
2022-08-26T17:32:27.108Z,11.48
2022-08-26T17:34:58.889Z,12.20
2022-08-26T17:37:30.298Z,11.32
2022-08-26T17:40:03.103Z,11.90
2022-08-26T17:42:40.331Z,11.50
2022-08-26T17:45:12.603Z,13.23
2022-08-26T17:47:45.007Z,11.90
2022-08-26T17:50:18.198Z,12.70
2022-08-26T17:52:49.810Z,12.63
2022-08-26T17:55:21.151Z,11.48
2022-08-26T17:57:53.424Z,11.60
2022-08-26T18:00:27.464Z,11.35
2022-08-26T18:02:58.872Z,10.68
2022-08-26T18:05:34.783Z,10.57
2022-08-26T18:08:06.365Z,10.35
2022-08-26T18:10:37.900Z,10.52
2022-08-26T18:13:10.051Z,8.85
2022-08-26T18:15:43.619Z,9.32
2022-08-26T18:18:15.622Z,9.18
2022-08-26T18:20:47.145Z,7.97
2022-08-26T18:23:24.334Z,8.18
2022-08-26T18:25:58.036Z,7.75
2022-08-26T18:28:29.488Z,8.30
2022-08-26T18:31:07.738Z,8.68
2022-08-26T18:36:23.833Z,7.63
2022-08-26T18:38:56.142Z,6.60
2022-08-26T18:41:30.502Z,6.45
2022-08-26T18:44:02.030Z,5.40
2022-08-26T18:46:33.571Z,4.85
2022-08-26T18:49:05.559Z,4.65
2022-08-26T18:51:37.887Z,4.90
2022-08-26T18:54:10.288Z,4.72
2022-08-26T18:56:42.405Z,4.68
2022-08-26T18:59:14.599Z,4.00
2022-08-26T19:01:47.966Z,4.03
2022-08-26T19:04:22.099Z,4.50
2022-08-26T19:06:53.737Z,3.90
2022-08-26T19:09:26.289Z,4.45
2022-08-26T19:11:58.927Z,3.97
2022-08-26T19:14:31.121Z,3.97
2022-08-26T19:17:02.611Z,3.70
2022-08-26T19:19:34.084Z,3.95
2022-08-26T19:22:06.104Z,3.70
2022-08-26T19:24:38.985Z,3.50
2022-08-26T19:27:14.598Z,3.50
2022-08-26T19:29:46.682Z,3.33
2022-08-26T19:32:23.982Z,3.42
2022-08-26T19:34:55.426Z,3.20
2022-08-26T19:37:26.810Z,3.00
2022-08-26T19:39:58.193Z,2.92
2022-08-26T19:42:29.801Z,3.35
2022-08-26T19:45:24.653Z,2.95
2022-08-26T19:47:57.406Z,3.05
2022-08-26T19:50:31.015Z,3.20
2022-08-26T19:53:04.067Z,3.17
2022-08-26T19:55:35.572Z,3.53
2022-08-26T19:58:07.862Z,3.22
2022-08-26T20:00:42.162Z,3.15
2022-08-26T20:03:15.857Z,3.70
2022-08-26T20:05:47.576Z,3.97
2022-08-26T20:08:22.082Z,3.95
2022-08-26T20:10:54.019Z,3.88
2022-08-26T20:13:25.653Z,4.70
2022-08-26T20:15:57.078Z,4.78
2022-08-26T20:18:46.794Z,4.28
2022-08-26T20:21:27.237Z,4.53
2022-08-26T20:24:03.273Z,5.10
2022-08-26T20:26:37.355Z,4.68
2022-08-26T20:29:10.589Z,4.57
2022-08-26T20:31:44.077Z,5.43
2022-08-26T20:34:18.446Z,5.13
2022-08-26T20:36:50.791Z,4.90
2022-08-26T20:39:22.165Z,5.38
2022-08-26T20:41:54.029Z,5.70
2022-08-26T20:44:25.734Z,5.45
2022-08-26T20:46:59.024Z,5.22
2022-08-26T20:49:32.230Z,5.32
2022-08-26T20:52:05.865Z,5.78
2022-08-26T20:54:37.320Z,5.57
2022-08-26T20:57:08.735Z,6.43
2022-08-26T20:59:40.519Z,5.75
2022-08-26T21:02:11.902Z,5.53
2022-08-26T21:04:43.349Z,6.15
2022-08-26T21:07:14.779Z,5.65
2022-08-26T21:09:46.928Z,6.13
2022-08-26T21:12:18.265Z,6.63
2022-08-26T21:14:49.885Z,5.68
2022-08-26T21:17:21.258Z,5.32
2022-08-26T21:19:53.188Z,5.63
2022-08-26T21:22:24.996Z,6.32
2022-08-26T21:24:56.347Z,6.25
2022-08-26T21:27:27.909Z,6.07
2022-08-26T21:29:59.448Z,6.38
2022-08-26T21:32:31.645Z,6.47
2022-08-26T21:35:03.181Z,6.15
2022-08-26T21:37:34.887Z,5.97
2022-08-26T21:40:07.720Z,5.13
2022-08-26T21:42:39.113Z,5.95
2022-08-26T21:45:11.015Z,5.28
2022-08-26T21:47:43.676Z,6.13
2022-08-26T21:50:15.069Z,5.65
2022-08-26T21:52:47.221Z,5.40
2022-08-26T21:55:18.750Z,5.57
2022-08-26T21:57:50.100Z,5.13
2022-08-26T22:00:21.521Z,4.97
2022-08-26T22:02:52.891Z,4.85
2022-08-26T22:05:24.324Z,4.80
2022-08-26T22:07:56.093Z,4.70
2022-08-26T22:10:28.482Z,4.30
2022-08-26T22:12:59.815Z,4.97
2022-08-26T22:15:32.959Z,4.68
2022-08-26T22:18:04.846Z,4.95
2022-08-26T22:20:36.250Z,5.75
2022-08-26T22:23:08.422Z,6.00
2022-08-26T22:25:39.810Z,4.82
2022-08-26T22:28:11.413Z,5.53
2022-08-26T22:30:44.297Z,5.30
2022-08-26T22:33:16.462Z,5.93
2022-08-26T22:35:51.076Z,4.93
2022-08-26T22:38:23.798Z,5.38
2022-08-26T22:40:56.446Z,4.45
2022-08-26T22:43:28.854Z,5.20
2022-08-26T22:46:00.336Z,5.00
2022-08-26T22:48:31.955Z,5.28
2022-08-26T22:51:04.238Z,6.32
2022-08-26T22:53:35.886Z,5.78
2022-08-26T22:56:09.793Z,6.57
2022-08-26T22:58:41.662Z,6.20
2022-08-26T23:01:13.274Z,7.22
2022-08-26T23:03:45.140Z,6.68
2022-08-26T23:06:16.579Z,8.75
2022-08-26T23:08:47.985Z,8.07
2022-08-26T23:11:19.565Z,8.20
2022-08-26T23:13:51.048Z,7.65
2022-08-26T23:16:22.545Z,8.55
2022-08-26T23:18:53.976Z,8.27
2022-08-26T23:21:25.350Z,8.23
2022-08-26T23:23:57.171Z,8.38
2022-08-26T23:26:28.570Z,8.63
2022-08-26T23:29:00.457Z,9.25
2022-08-26T23:31:32.230Z,9.82
2022-08-26T23:34:22.447Z,9.07
2022-08-26T23:36:55.361Z,9.27
2022-08-26T23:39:26.903Z,9.30
2022-08-26T23:42:01.487Z,9.45
2022-08-26T23:44:34.913Z,8.23
2022-08-26T23:47:07.613Z,9.35
2022-08-26T23:49:39.075Z,9.88
2022-08-26T23:52:59.076Z,8.15
2022-08-26T23:55:33.457Z,8.23
2022-08-26T23:58:06.154Z,8.43
